createdAt,value
2022-08-12T00:04:52.173Z,0
2022-08-12T00:09:52.009Z,0
2022-08-12T00:14:50.744Z,0
2022-08-12T00:19:47.950Z,0
2022-08-12T00:24:47.089Z,0
2022-08-12T00:29:50.391Z,0
2022-08-12T00:34:51.697Z,0
2022-08-12T00:39:45.394Z,0
2022-08-12T00:44:48.783Z,0
2022-08-12T00:49:51.631Z,0
2022-08-12T00:54:43.707Z,0
2022-08-12T00:59:17.349Z,0
2022-08-12T01:04:16.552Z,0
2022-08-12T01:09:15.977Z,0
2022-08-12T01:14:14.385Z,0
2022-08-12T01:19:23.225Z,0
2022-08-12T01:24:33.969Z,0
2022-08-12T01:29:13.579Z,0
2022-08-12T01:34:39.932Z,0
2022-08-12T01:39:20.359Z,0
2022-08-12T01:44:23.083Z,0
2022-08-12T01:49:23.593Z,0
2022-08-12T01:54:16.339Z,0
2022-08-12T01:58:56.333Z,0
2022-08-12T02:03:56.759Z,0
2022-08-12T02:08:56.444Z,0
2022-08-12T02:13:56.725Z,0
2022-08-12T02:18:55.899Z,0
2022-08-12T02:23:53.800Z,0
2022-08-12T02:28:52.931Z,0
2022-08-12T02:33:51.401Z,0
2022-08-12T02:38:51.139Z,0
2022-08-12T02:43:50.111Z,0
2022-08-12T02:48:50.674Z,0
2022-08-12T02:54:08.354Z,0
2022-08-12T02:58:47.565Z,0
2022-08-12T03:03:37.085Z,0
2022-08-12T03:08:37.505Z,0
2022-08-12T03:13:33.449Z,0
2022-08-12T03:18:33.171Z,0
2022-08-12T03:23:33.598Z,0
2022-08-12T03:28:32.683Z,0
2022-08-12T03:33:31.652Z,0
2022-08-12T03:38:30.676Z,0
2022-08-12T03:43:29.692Z,0
2022-08-12T03:48:29.904Z,0
2022-08-12T03:53:27.249Z,0
2022-08-12T03:58:16.074Z,0
2022-08-12T04:03:15.532Z,0
2022-08-12T04:08:14.745Z,0
2022-08-12T04:13:13.986Z,0
2022-08-12T04:18:13.813Z,0
2022-08-12T04:23:19.466Z,0
2022-08-12T04:28:19.825Z,0
2022-08-12T04:33:17.436Z,0
2022-08-12T04:38:16.744Z,0
2022-08-12T04:44:04.531Z,0.01
2022-08-12T04:48:21.087Z,0.01
2022-08-12T04:53:15.775Z,0.01
2022-08-12T04:58:31.952Z,0.02
2022-08-12T04:59:51.385Z,0.02
2022-08-12T05:04:36.353Z,0.02
2022-08-12T05:10:04.929Z,0.02
2022-08-12T05:14:39.675Z,0.03
2022-08-12T05:19:33.560Z,0.03
2022-08-12T05:24:33.649Z,0.04
2022-08-12T05:30:11.864Z,0.04
2022-08-12T05:34:32.607Z,0.04
2022-08-12T05:39:32.301Z,0.05
2022-08-12T05:44:31.968Z,0.05
2022-08-12T05:49:29.600Z,0.06
2022-08-12T05:54:59.756Z,0.06
2022-08-12T05:59:14.946Z,0.07
2022-08-12T06:04:35.662Z,0.07
2022-08-12T06:09:13.836Z,0.08
2022-08-12T06:14:17.755Z,0.08
2022-08-12T06:19:12.362Z,0.09
2022-08-12T06:24:19.250Z,0.09
2022-08-12T06:30:39.890Z,0.1
2022-08-12T06:35:52.722Z,0.1
2022-08-12T06:39:18.109Z,0.11
2022-08-12T06:44:17.202Z,0.12
2022-08-12T06:49:15.155Z,0.12
2022-08-12T06:54:33.150Z,0.13
2022-08-12T06:58:55.634Z,0.13
2022-08-12T07:03:55.659Z,0.14
2022-08-12T07:08:55.245Z,0.14
2022-08-12T07:14:15.654Z,0.15
2022-08-12T07:18:54.529Z,0.16
2022-08-12T07:23:53.918Z,0.16
2022-08-12T07:28:52.153Z,0.17
2022-08-12T07:33:51.790Z,0.17
2022-08-12T07:38:52.027Z,0.33
2022-08-12T07:43:50.477Z,0.34
2022-08-12T07:48:50.084Z,0.35
2022-08-12T07:54:05.035Z,0.37
2022-08-12T07:58:49.743Z,0.38
2022-08-12T08:03:51.858Z,0.39
2022-08-12T08:08:49.703Z,0.41
2022-08-12T08:13:46.750Z,0.43
2022-08-12T08:18:46.192Z,0.44
2022-08-12T08:24:06.164Z,0.46
2022-08-12T08:28:45.985Z,0.48
2022-08-12T08:34:55.566Z,0.49
2022-08-12T08:39:00.470Z,0.51
2022-08-12T08:43:49.367Z,0.53
2022-08-12T08:48:43.305Z,0.54
2022-08-12T08:53:53.647Z,0.56
2022-08-12T08:58:40.406Z,0.58
2022-08-12T09:05:26.861Z,0.6
2022-08-12T09:08:41.047Z,0.61
2022-08-12T09:14:30.719Z,0.63
2022-08-12T09:18:44.816Z,0.64
2022-08-12T09:24:16.178Z,0.66
2022-08-12T09:28:40.087Z,0.67
2022-08-12T09:34:51.309Z,0.68
2022-08-12T09:38:37.494Z,0.7
2022-08-12T09:43:34.889Z,0.72
2022-08-12T09:48:57.855Z,0.72
2022-08-12T09:53:42.351Z,0.74
2022-08-12T09:59:04.030Z,0.75
2022-08-12T10:00:52.843Z,0.75
2022-08-12T10:04:56.524Z,0.77
2022-08-12T10:10:02.465Z,0.78
2022-08-12T10:14:58.053Z,0.77
2022-08-12T10:20:01.408Z,0.79
2022-08-12T10:24:55.952Z,0.79
2022-08-12T10:31:04.957Z,0.8
2022-08-12T10:34:59.188Z,0.8
2022-08-12T10:40:26.965Z,0.8
2022-08-12T10:44:49.172Z,0.81
2022-08-12T10:52:05.045Z,0.82
2022-08-12T10:54:50.397Z,0.81
2022-08-12T10:59:14.126Z,0.8
2022-08-12T11:04:53.315Z,0.83
2022-08-12T11:09:56.298Z,0.85
2022-08-12T11:14:55.730Z,0.85
2022-08-12T11:19:24.866Z,0.85
2022-08-12T11:24:36.966Z,0.86
2022-08-12T11:29:24.993Z,0.85
2022-08-12T11:35:00.652Z,0.86
2022-08-12T11:44:45.435Z,0.86
2022-08-12T11:49:37.011Z,0.86
2022-08-12T11:54:18.571Z,0.85
2022-08-12T12:02:07.279Z,0.86
2022-08-12T12:03:59.498Z,0.85
2022-08-12T12:09:01.083Z,0.83
2022-08-12T12:14:18.979Z,0.83
2022-08-12T12:18:52.443Z,0.83
2022-08-12T12:23:50.234Z,0.83
2022-08-12T12:28:58.976Z,0.81
2022-08-12T12:34:00.844Z,0.8
2022-08-12T12:38:49.264Z,0.81
2022-08-12T12:44:25.649Z,0.8
2022-08-12T12:48:47.672Z,0.78
2022-08-12T12:54:12.377Z,0.79
2022-08-12T12:58:46.178Z,0.76
2022-08-12T13:00:05.542Z,0.76
2022-08-12T13:05:16.194Z,0.74
2022-08-12T13:10:04.767Z,0.66
2022-08-12T13:15:03.859Z,0.37
2022-08-12T13:20:04.391Z,0.44
2022-08-12T13:25:12.112Z,0.43
2022-08-12T13:30:12.732Z,0.45
2022-08-12T13:36:15.470Z,0.63
2022-08-12T13:39:58.883Z,0.62
2022-08-12T13:45:04.917Z,0.4
2022-08-12T13:50:01.100Z,0.35
2022-08-12T13:55:00.482Z,0.31
2022-08-12T13:59:18.119Z,0.32
2022-08-12T14:04:25.361Z,0.32
2022-08-12T14:19:56.601Z,0.43
2022-08-12T14:24:32.118Z,0.54
2022-08-12T14:30:30.210Z,0.26
2022-08-12T14:34:29.492Z,0.4
2022-08-12T14:39:18.844Z,0.35
2022-08-12T14:45:08.218Z,0.23
2022-08-12T14:58:07.488Z,0.43
2022-08-12T14:59:26.183Z,0.43
2022-08-12T15:04:01.011Z,0.4
2022-08-12T15:08:58.252Z,0.39
2022-08-12T15:13:56.000Z,0.37
2022-08-12T15:20:33.362Z,0.35
2022-08-12T15:23:59.109Z,0.34
2022-08-12T15:28:56.841Z,0.32
2022-08-12T15:33:53.340Z,0.3
2022-08-12T15:38:50.395Z,0.26
2022-08-12T15:44:47.120Z,0.15
2022-08-12T15:48:50.342Z,0.17
2022-08-12T15:54:00.765Z,0.15
2022-08-12T15:58:47.901Z,0.16
2022-08-12T16:04:03.124Z,0.18
2022-08-12T16:08:47.565Z,0.14
2022-08-12T16:13:46.867Z,0.12
2022-08-12T16:18:48.960Z,0.12
2022-08-12T16:24:02.680Z,0.12
2022-08-12T16:28:43.751Z,0.11
2022-08-12T16:34:03.289Z,0.1
2022-08-12T16:38:52.807Z,0.1
2022-08-12T16:43:42.019Z,0.09
2022-08-12T16:48:40.973Z,0.08
2022-08-12T16:53:47.768Z,0.08
2022-08-12T16:58:38.148Z,0.07
2022-08-12T17:03:55.114Z,0.06
2022-08-12T17:08:36.352Z,0.06
2022-08-12T17:13:55.072Z,0.06
2022-08-12T17:19:12.545Z,0.05
2022-08-12T17:23:55.666Z,0.05
2022-08-12T17:28:35.419Z,0.04
2022-08-12T17:33:48.104Z,0.04
2022-08-12T17:38:33.672Z,0.03
2022-08-12T17:44:02.854Z,0.03
2022-08-12T17:48:58.519Z,0.02
2022-08-12T17:54:14.051Z,0.02
2022-08-12T17:58:43.602Z,0.02
2022-08-12T17:59:54.219Z,0.02
2022-08-12T18:05:12.992Z,0.01
2022-08-12T18:09:48.936Z,0.01
2022-08-12T18:14:54.297Z,0.01
2022-08-12T18:20:17.546Z,0.01
2022-08-12T18:24:44.657Z,0
2022-08-12T18:29:45.541Z,0
2022-08-12T18:34:57.871Z,0
2022-08-12T18:39:49.425Z,0
2022-08-12T18:44:41.099Z,0
2022-08-12T18:49:42.780Z,0
2022-08-12T18:55:02.793Z,0
2022-08-12T19:00:09.036Z,0
2022-08-12T19:04:15.049Z,0
2022-08-12T19:09:12.724Z,0
2022-08-12T19:14:21.485Z,0
2022-08-12T19:19:21.694Z,0
2022-08-12T19:24:21.422Z,0
2022-08-12T19:29:20.364Z,0
2022-08-12T19:36:26.878Z,0
2022-08-12T19:39:31.763Z,0
2022-08-12T19:44:28.530Z,0
2022-08-12T19:49:20.438Z,0
2022-08-12T19:54:15.875Z,0
2022-08-12T19:59:01.257Z,0
2022-08-12T20:04:02.925Z,0
2022-08-12T20:09:00.098Z,0
2022-08-12T20:14:05.802Z,0
2022-08-12T20:19:07.841Z,0
2022-08-12T20:24:11.684Z,0
2022-08-12T20:28:49.856Z,0
2022-08-12T20:33:59.238Z,0
2022-08-12T20:38:49.190Z,0
2022-08-12T20:43:50.120Z,0
2022-08-12T20:48:57.519Z,0
2022-08-12T20:54:03.599Z,0
2022-08-12T20:58:43.613Z,0
2022-08-12T21:00:05.109Z,0
2022-08-12T21:05:23.061Z,0
2022-08-12T21:10:03.381Z,0
2022-08-12T21:16:01.462Z,0
2022-08-12T21:20:15.599Z,0
2022-08-12T21:25:18.559Z,0
2022-08-12T21:30:02.960Z,0
2022-08-12T21:35:05.364Z,0
2022-08-12T21:40:15.006Z,0
2022-08-12T21:46:05.375Z,0
2022-08-12T21:50:09.788Z,0
2022-08-12T21:54:59.634Z,0
2022-08-12T21:59:17.653Z,0
2022-08-12T22:04:16.546Z,0
2022-08-12T22:09:19.844Z,0
2022-08-12T22:14:26.160Z,0
2022-08-12T22:19:14.211Z,0
2022-08-12T22:24:32.579Z,0
2022-08-12T22:29:21.654Z,0
2022-08-12T22:34:20.892Z,0
2022-08-12T22:39:18.921Z,0
2022-08-12T22:44:17.786Z,0
2022-08-12T22:49:59.704Z,0
2022-08-12T22:55:07.081Z,0
2022-08-12T22:59:04.505Z,0
2022-08-12T23:04:00.359Z,0
2022-08-12T23:08:59.727Z,0
2022-08-12T23:13:58.626Z,0
2022-08-12T23:19:17.677Z,0
2022-08-12T23:24:13.363Z,0
2022-08-12T23:28:56.797Z,0
2022-08-12T23:34:06.262Z,0
2022-08-12T23:40:17.659Z,0
2022-08-12T23:44:01.978Z,0
2022-08-12T23:48:54.896Z,0
2022-08-12T23:53:55.409Z,0
2022-08-12T23:58:52.992Z,0
